createdAt,value
2018-10-07T00:01:50.517Z,10.23
2018-10-07T00:04:18.677Z,9.80
2018-10-07T00:06:46.887Z,9.70
2018-10-07T00:09:15.073Z,10.50
2018-10-07T00:11:43.858Z,9.07
2018-10-07T00:14:12.061Z,9.93
2018-10-07T00:16:40.242Z,9.70
2018-10-07T00:19:08.437Z,10.00
2018-10-07T00:21:36.613Z,10.00
2018-10-07T00:24:04.798Z,9.27
2018-10-07T00:26:32.976Z,8.80
2018-10-07T00:29:01.157Z,9.87
2018-10-07T00:31:29.349Z,10.13
2018-10-07T00:33:57.521Z,10.13
2018-10-07T00:36:25.706Z,9.80
2018-10-07T00:38:53.964Z,9.40
2018-10-07T00:41:22.141Z,10.60
2018-10-07T00:43:50.316Z,9.60
2018-10-07T00:46:18.473Z,9.80
2018-10-07T00:48:46.635Z,9.67
2018-10-07T00:51:14.809Z,10.30
2018-10-07T00:53:42.982Z,9.30
2018-10-07T00:56:11.169Z,9.17
2018-10-07T00:58:39.358Z,9.30
2018-10-07T01:01:07.531Z,9.17
2018-10-07T01:03:35.674Z,9.77
2018-10-07T01:06:03.866Z,8.97
2018-10-07T01:08:32.050Z,10.23
2018-10-07T01:11:00.226Z,9.30
2018-10-07T01:13:28.380Z,9.10
2018-10-07T01:15:56.570Z,9.80
2018-10-07T01:18:24.730Z,9.83
2018-10-07T01:20:52.913Z,9.10
2018-10-07T01:23:21.064Z,9.20
2018-10-07T01:25:49.225Z,10.60
2018-10-07T01:28:17.379Z,8.70
2018-10-07T01:30:45.557Z,9.80
2018-10-07T01:33:13.708Z,8.57
2018-10-07T01:35:41.880Z,9.37
2018-10-07T01:38:10.033Z,9.20
2018-10-07T01:40:38.208Z,9.80
2018-10-07T01:43:06.372Z,9.20
2018-10-07T01:45:34.543Z,9.20
2018-10-07T01:48:02.785Z,9.07
2018-10-07T01:50:30.960Z,10.37
2018-10-07T01:52:59.126Z,9.60
2018-10-07T01:55:27.372Z,9.30
2018-10-07T01:57:55.521Z,9.93
2018-10-07T02:00:23.720Z,9.00
2018-10-07T02:02:51.878Z,8.50
2018-10-07T02:05:20.077Z,10.10
2018-10-07T02:07:48.237Z,9.03
2018-10-07T02:10:16.397Z,9.67
2018-10-07T02:12:44.550Z,10.27
2018-10-07T02:15:12.729Z,9.37
2018-10-07T02:17:40.894Z,9.13
2018-10-07T02:20:09.066Z,9.20
2018-10-07T02:22:37.238Z,8.97
2018-10-07T02:25:05.413Z,8.40
2018-10-07T02:27:33.580Z,8.70
2018-10-07T02:30:01.763Z,9.03
2018-10-07T02:32:29.938Z,8.50
2018-10-07T02:34:58.093Z,8.60
2018-10-07T02:37:26.306Z,8.70
2018-10-07T02:39:54.533Z,9.43
2018-10-07T02:42:22.699Z,8.57
2018-10-07T02:44:50.865Z,8.47
2018-10-07T02:47:19.032Z,8.90
2018-10-07T02:49:47.206Z,8.90
2018-10-07T02:52:19.601Z,8.80
2018-10-07T02:54:47.781Z,8.90
2018-10-07T02:57:15.955Z,8.93
2018-10-07T02:59:44.138Z,9.40
2018-10-07T03:02:12.302Z,8.90
2018-10-07T03:04:40.484Z,8.43
2018-10-07T03:07:08.635Z,9.20
2018-10-07T03:09:36.802Z,8.33
2018-10-07T03:12:04.949Z,8.50
2018-10-07T03:14:33.113Z,9.50
2018-10-07T03:17:01.278Z,10.13
2018-10-07T03:19:29.446Z,9.07
2018-10-07T03:21:57.620Z,8.87
2018-10-07T03:24:25.769Z,8.67
2018-10-07T03:26:53.937Z,8.70
2018-10-07T03:29:22.140Z,8.97
2018-10-07T03:31:50.269Z,9.03
2018-10-07T03:34:18.460Z,9.07
2018-10-07T03:36:46.612Z,8.90
2018-10-07T03:39:14.773Z,8.93
2018-10-07T03:41:42.943Z,9.23
2018-10-07T03:44:11.121Z,8.00
2018-10-07T03:46:39.298Z,9.97
2018-10-07T03:49:07.465Z,8.10
2018-10-07T03:51:35.642Z,9.90
2018-10-07T03:54:03.796Z,9.63
2018-10-07T03:56:31.962Z,8.70
2018-10-07T03:59:00.114Z,9.23
2018-10-07T04:01:30.046Z,9.27
2018-10-07T04:03:58.305Z,8.20
2018-10-07T04:06:26.482Z,9.57
2018-10-07T04:08:54.927Z,10.13
2018-10-07T04:11:23.302Z,9.10
2018-10-07T04:13:51.625Z,8.20
2018-10-07T04:16:19.901Z,9.53
2018-10-07T04:18:48.146Z,8.80
2018-10-07T04:21:16.566Z,9.00
2018-10-07T04:23:44.718Z,8.90
2018-10-07T04:26:12.907Z,8.50
2018-10-07T04:28:41.103Z,8.73
2018-10-07T04:31:09.317Z,9.40
2018-10-07T04:33:37.490Z,10.20
2018-10-07T04:36:05.681Z,9.37
2018-10-07T04:38:33.860Z,9.37
2018-10-07T04:41:02.039Z,9.53
2018-10-07T04:43:30.277Z,10.10
2018-10-07T04:45:58.466Z,9.57
2018-10-07T04:48:26.643Z,9.47
2018-10-07T04:50:54.914Z,9.73
2018-10-07T04:53:23.079Z,8.80
2018-10-07T04:55:51.316Z,9.53
2018-10-07T04:58:19.514Z,9.67
2018-10-07T05:00:47.700Z,9.10
2018-10-07T05:03:16.166Z,8.80
2018-10-07T05:05:44.357Z,8.73
2018-10-07T05:08:12.555Z,9.20
2018-10-07T05:11:03.882Z,9.07
2018-10-07T05:13:51.706Z,9.30
2018-10-07T05:16:28.533Z,9.40
2018-10-07T05:18:57.117Z,8.30
2018-10-07T05:21:25.322Z,8.77
2018-10-07T05:23:53.821Z,8.33
2018-10-07T05:26:21.998Z,8.80
2018-10-07T05:28:50.282Z,9.00
2018-10-07T05:31:18.686Z,9.10
2018-10-07T05:33:47.338Z,9.30
2018-10-07T05:36:15.661Z,9.27
2018-10-07T05:38:44.134Z,8.53
2018-10-07T05:41:12.569Z,8.70
2018-10-07T05:43:41.090Z,9.27
2018-10-07T05:46:09.985Z,8.80
2018-10-07T05:48:39.342Z,8.33
2018-10-07T05:51:07.803Z,9.53
2018-10-07T05:53:36.254Z,9.03
2018-10-07T05:56:04.802Z,9.07
2018-10-07T05:58:33.527Z,8.83
2018-10-07T06:01:09.989Z,8.80
2018-10-07T06:03:44.028Z,8.97
2018-10-07T06:06:12.394Z,8.50
2018-10-07T06:08:41.222Z,8.73
2018-10-07T06:11:09.450Z,8.03
2018-10-07T06:13:37.674Z,10.47
2018-10-07T06:16:05.879Z,8.93
2018-10-07T06:18:34.341Z,9.60
2018-10-07T06:21:02.945Z,9.50
2018-10-07T06:23:32.317Z,9.67
2018-10-07T06:26:00.618Z,9.00
2018-10-07T06:28:28.851Z,8.77
2018-10-07T06:30:58.011Z,9.30
2018-10-07T06:33:26.866Z,10.43
2018-10-07T06:35:55.096Z,9.93
2018-10-07T06:38:23.364Z,9.50
2018-10-07T06:40:51.921Z,8.90
2018-10-07T06:43:20.303Z,10.00
2018-10-07T06:45:48.570Z,9.40
2018-10-07T06:48:16.891Z,10.50
2018-10-07T06:50:45.345Z,9.80
2018-10-07T06:53:13.749Z,10.20
2018-10-07T06:55:41.922Z,9.93
2018-10-07T06:58:10.158Z,9.77
2018-10-07T07:00:38.377Z,9.90
2018-10-07T07:03:06.549Z,8.53
2018-10-07T07:05:34.880Z,10.27
2018-10-07T07:08:04.048Z,9.60
2018-10-07T07:10:32.266Z,8.63
2018-10-07T07:13:00.527Z,8.73
2018-10-07T07:15:28.602Z,9.60
2018-10-07T07:18:04.354Z,8.57
2018-10-07T07:20:32.530Z,9.50
2018-10-07T07:23:00.730Z,8.60
2018-10-07T07:25:28.909Z,9.17
2018-10-07T07:27:57.149Z,9.10
2018-10-07T07:30:25.301Z,8.87
2018-10-07T07:32:53.486Z,8.60
2018-10-07T07:35:21.662Z,9.37
2018-10-07T07:37:50.039Z,8.80
2018-10-07T07:40:18.438Z,8.90
2018-10-07T07:42:46.598Z,8.40
2018-10-07T07:45:14.785Z,9.40
2018-10-07T07:47:42.945Z,9.07
2018-10-07T07:50:11.101Z,8.43
2018-10-07T07:55:04.986Z,8.40
2018-10-07T07:57:33.126Z,8.03
2018-10-07T08:00:01.286Z,9.03
2018-10-07T08:02:29.437Z,7.80
2018-10-07T08:04:57.608Z,8.40
2018-10-07T08:07:25.773Z,8.50
2018-10-07T08:09:53.925Z,7.63
2018-10-07T08:12:22.061Z,7.33
2018-10-07T08:14:50.225Z,7.60
2018-10-07T08:17:18.381Z,7.97
2018-10-07T08:19:46.544Z,6.63
2018-10-07T08:22:14.693Z,7.20
2018-10-07T08:24:42.834Z,7.00
2018-10-07T08:27:11.017Z,7.13
2018-10-07T08:29:39.575Z,7.13
2018-10-07T08:32:07.694Z,7.40
2018-10-07T08:34:35.858Z,7.17
2018-10-07T08:37:04.007Z,6.30
2018-10-07T08:39:32.174Z,6.53
2018-10-07T08:42:00.367Z,6.20
2018-10-07T08:44:28.562Z,6.53
2018-10-07T08:46:56.748Z,5.40
2018-10-07T08:49:24.945Z,5.17
2018-10-07T08:51:53.143Z,5.70
2018-10-07T08:54:21.343Z,5.10
2018-10-07T08:56:49.614Z,5.10
2018-10-07T08:59:17.926Z,5.67
2018-10-07T09:01:46.131Z,5.70
2018-10-07T09:04:14.342Z,5.93
2018-10-07T09:06:42.517Z,5.80
2018-10-07T09:09:11.422Z,5.20
2018-10-07T09:11:39.734Z,5.73
2018-10-07T09:14:07.941Z,5.43
2018-10-07T09:16:36.326Z,6.40
2018-10-07T09:19:04.561Z,6.10
2018-10-07T09:21:33.116Z,5.90
2018-10-07T09:24:01.318Z,5.70
2018-10-07T09:26:29.537Z,5.73
2018-10-07T09:28:57.741Z,5.67
2018-10-07T09:31:25.921Z,5.90
2018-10-07T09:33:54.114Z,5.50
2018-10-07T09:36:22.290Z,5.40
2018-10-07T09:38:50.479Z,5.97
2018-10-07T09:41:18.682Z,5.73
2018-10-07T09:43:46.854Z,5.80
2018-10-07T09:46:15.030Z,5.27
2018-10-07T09:48:43.305Z,6.10
2018-10-07T09:51:11.463Z,5.80
2018-10-07T09:53:39.646Z,5.30
2018-10-07T09:56:07.825Z,5.00
2018-10-07T09:58:36.001Z,4.70
2018-10-07T10:01:05.294Z,5.10
2018-10-07T10:03:33.477Z,5.23
2018-10-07T10:06:01.655Z,4.40
2018-10-07T10:08:29.835Z,5.00
2018-10-07T10:10:58.069Z,5.50
2018-10-07T10:13:26.194Z,5.20
2018-10-07T10:15:54.361Z,5.43
2018-10-07T10:18:30.423Z,5.03
2018-10-07T10:21:12.134Z,5.40
2018-10-07T10:23:48.218Z,5.40
2018-10-07T10:26:18.928Z,5.37
2018-10-07T10:28:58.337Z,5.63
2018-10-07T10:32:05.649Z,6.07
2018-10-07T10:35:49.755Z,5.83
2018-10-07T10:38:28.318Z,5.77
2018-10-07T10:41:06.097Z,5.70
2018-10-07T10:43:42.382Z,5.70
2018-10-07T10:46:17.534Z,5.20
2018-10-07T10:49:53.986Z,4.80
2018-10-07T10:53:29.307Z,5.30
2018-10-07T10:56:08.958Z,5.10
2018-10-07T10:58:52.919Z,5.60
2018-10-07T11:01:30.708Z,5.30
2018-10-07T11:04:21.061Z,6.33
2018-10-07T11:08:07.517Z,5.47
2018-10-07T11:10:58.060Z,5.40
2018-10-07T11:13:36.534Z,4.37
2018-10-07T11:16:11.276Z,4.83
2018-10-07T11:18:49.959Z,5.20
2018-10-07T11:23:36.588Z,5.40
2018-10-07T11:27:09.263Z,4.60
2018-10-07T11:29:47.066Z,4.53
2018-10-07T11:32:18.821Z,4.93
2018-10-07T11:34:50.651Z,4.97
2018-10-07T11:37:30.173Z,4.80
2018-10-07T11:40:07.535Z,5.00
2018-10-07T11:42:39.422Z,4.50
2018-10-07T11:45:09.908Z,4.40
2018-10-07T11:49:56.700Z,4.80
2018-10-07T11:52:36.294Z,4.30
2018-10-07T11:55:06.435Z,4.37
2018-10-07T11:57:34.704Z,4.40
2018-10-07T12:00:03.230Z,4.80
2018-10-07T12:02:31.721Z,4.50
2018-10-07T12:04:59.875Z,5.13
2018-10-07T12:07:30.712Z,4.30
2018-10-07T12:09:58.911Z,4.70
2018-10-07T12:12:27.059Z,3.60
2018-10-07T12:14:58.611Z,4.50
2018-10-07T12:17:26.848Z,4.57
2018-10-07T12:19:55.017Z,4.87
2018-10-07T12:22:28.936Z,4.10
2018-10-07T12:24:57.162Z,4.53
2018-10-07T12:27:27.971Z,4.73
2018-10-07T12:29:58.438Z,4.40
2018-10-07T12:32:26.628Z,4.20
2018-10-07T12:34:54.811Z,5.47
2018-10-07T12:37:22.986Z,4.40
2018-10-07T12:39:51.168Z,4.60
2018-10-07T12:42:19.342Z,5.13
2018-10-07T12:44:47.531Z,5.80
2018-10-07T12:47:15.762Z,4.60
2018-10-07T12:49:44.057Z,5.33
2018-10-07T12:52:12.925Z,4.73
2018-10-07T12:54:41.126Z,4.80
2018-10-07T12:57:10.338Z,4.90
2018-10-07T12:59:38.498Z,4.80
2018-10-07T13:02:06.683Z,3.93
2018-10-07T13:04:34.851Z,4.00
2018-10-07T13:07:03.033Z,3.97
2018-10-07T13:09:31.216Z,5.27
2018-10-07T13:11:59.382Z,4.70
2018-10-07T13:14:27.901Z,4.50
2018-10-07T13:16:56.070Z,4.83
2018-10-07T13:19:24.318Z,5.00
2018-10-07T13:21:52.417Z,3.90
2018-10-07T13:24:20.596Z,4.30
2018-10-07T13:26:49.237Z,4.10
2018-10-07T13:29:17.453Z,3.40
2018-10-07T13:31:45.642Z,3.80
2018-10-07T13:34:13.822Z,3.10
2018-10-07T13:36:42.029Z,3.70
2018-10-07T13:39:11.329Z,3.60
2018-10-07T13:41:40.583Z,3.80
2018-10-07T13:44:08.795Z,4.50
2018-10-07T13:46:36.951Z,3.77
2018-10-07T13:49:05.110Z,3.60
2018-10-07T13:51:33.293Z,4.00
2018-10-07T13:54:01.500Z,3.90
2018-10-07T13:56:29.729Z,3.73
2018-10-07T13:58:58.045Z,4.03
2018-10-07T14:01:26.288Z,3.80
2018-10-07T14:03:54.538Z,3.93
2018-10-07T14:06:22.750Z,4.77
2018-10-07T14:08:51.026Z,4.03
2018-10-07T14:11:19.239Z,3.70
2018-10-07T14:13:47.423Z,4.07
2018-10-07T14:16:15.638Z,4.33
2018-10-07T14:18:43.969Z,4.00
2018-10-07T14:21:12.169Z,4.40
2018-10-07T14:23:40.346Z,4.37
2018-10-07T14:26:08.540Z,4.20
2018-10-07T14:28:36.701Z,4.37
2018-10-07T14:31:04.891Z,4.03
2018-10-07T14:33:33.117Z,4.17
2018-10-07T14:36:01.280Z,4.27
2018-10-07T14:38:29.514Z,4.10
2018-10-07T14:40:58.186Z,4.30
2018-10-07T14:43:26.394Z,4.50
2018-10-07T14:45:54.577Z,4.60
2018-10-07T14:48:22.762Z,4.13
2018-10-07T14:50:50.952Z,4.80
2018-10-07T14:53:19.117Z,4.80
2018-10-07T14:55:47.287Z,4.43
2018-10-07T14:58:17.631Z,4.50
2018-10-07T15:00:49.439Z,4.40
2018-10-07T15:03:17.638Z,4.93
2018-10-07T15:05:45.814Z,4.00
2018-10-07T15:08:14.006Z,4.83
2018-10-07T15:10:42.270Z,4.43
2018-10-07T15:13:10.496Z,4.97
2018-10-07T15:15:38.762Z,5.27
2018-10-07T15:18:06.960Z,5.17
2018-10-07T15:20:35.164Z,4.93
2018-10-07T15:23:03.437Z,4.60
2018-10-07T15:25:31.630Z,4.30
2018-10-07T15:27:59.993Z,5.20
2018-10-07T15:30:28.252Z,4.60
2018-10-07T15:32:56.470Z,4.87
2018-10-07T15:35:24.659Z,4.80
2018-10-07T15:37:52.833Z,4.20
2018-10-07T15:40:21.029Z,5.03
2018-10-07T15:42:49.217Z,4.60
2018-10-07T15:45:17.412Z,4.83
2018-10-07T15:47:46.674Z,5.00
2018-10-07T15:50:14.818Z,4.60
2018-10-07T15:52:43.407Z,5.23
2018-10-07T15:55:11.615Z,5.20
2018-10-07T15:57:40.394Z,5.33
2018-10-07T16:00:08.540Z,4.83
2018-10-07T16:02:36.974Z,4.47
2018-10-07T16:05:05.324Z,4.60
2018-10-07T16:07:33.522Z,5.20
2018-10-07T16:10:01.710Z,4.80
2018-10-07T16:12:29.890Z,5.17
2018-10-07T16:14:58.057Z,5.07
2018-10-07T16:17:26.231Z,4.60
2018-10-07T16:19:54.409Z,5.47
2018-10-07T16:22:22.598Z,5.10
2018-10-07T16:24:50.755Z,4.70
2018-10-07T16:27:18.942Z,5.07
2018-10-07T16:29:47.118Z,5.50
2018-10-07T16:32:15.307Z,4.53
2018-10-07T16:34:43.454Z,4.80
2018-10-07T16:37:11.626Z,4.40
2018-10-07T16:39:39.804Z,4.17
2018-10-07T16:42:08.010Z,4.90
2018-10-07T16:44:36.188Z,4.80
2018-10-07T16:47:04.358Z,5.20
2018-10-07T16:49:32.527Z,5.33
2018-10-07T16:52:00.702Z,5.93
2018-10-07T16:54:28.915Z,5.27
2018-10-07T16:56:57.086Z,4.93
2018-10-07T16:59:25.426Z,4.93
2018-10-07T17:01:53.885Z,5.00
2018-10-07T17:04:22.586Z,5.33
2018-10-07T17:06:51.275Z,5.83
2018-10-07T17:09:19.890Z,6.10
2018-10-07T17:11:48.439Z,5.93
2018-10-07T17:14:16.846Z,5.97
2018-10-07T17:16:45.348Z,5.87
2018-10-07T17:19:13.901Z,6.60
2018-10-07T17:21:42.276Z,6.40
2018-10-07T17:24:10.446Z,6.17
2018-10-07T17:26:38.634Z,7.00
2018-10-07T17:29:06.939Z,6.73
2018-10-07T17:31:35.118Z,6.97
2018-10-07T17:34:03.306Z,6.80
2018-10-07T17:36:31.484Z,8.20
2018-10-07T17:38:59.674Z,7.80
2018-10-07T17:41:27.845Z,7.97
2018-10-07T17:43:56.135Z,7.60
2018-10-07T17:46:24.382Z,7.40
2018-10-07T17:48:52.646Z,8.40
2018-10-07T17:51:20.763Z,8.40
2018-10-07T17:53:48.939Z,8.17
2018-10-07T17:56:17.130Z,8.17
2018-10-07T17:58:45.324Z,8.43
2018-10-07T18:01:13.538Z,8.80
2018-10-07T18:03:41.830Z,9.00
2018-10-07T18:06:10.035Z,9.20
2018-10-07T18:08:38.753Z,10.80
2018-10-07T18:11:06.981Z,11.43
2018-10-07T18:13:35.178Z,9.93
2018-10-07T18:16:03.550Z,9.80
2018-10-07T18:18:31.744Z,9.67
2018-10-07T18:20:59.987Z,10.17
2018-10-07T18:23:28.321Z,9.27
2018-10-07T18:25:56.529Z,9.10
2018-10-07T18:28:24.720Z,10.50
2018-10-07T18:30:52.949Z,9.30
2018-10-07T18:33:21.115Z,9.43
2018-10-07T18:35:49.315Z,9.90
2018-10-07T18:38:17.918Z,10.23
2018-10-07T18:40:46.128Z,10.23
2018-10-07T18:43:14.424Z,10.23
2018-10-07T18:45:42.522Z,11.23
2018-10-07T18:48:10.730Z,12.10
2018-10-07T18:50:38.946Z,11.23
2018-10-07T18:53:07.123Z,11.17
2018-10-07T18:55:35.296Z,12.53
2018-10-07T18:58:03.554Z,11.47
2018-10-07T19:00:31.973Z,12.07
2018-10-07T19:03:00.284Z,12.90
2018-10-07T19:05:28.349Z,14.23
2018-10-07T19:07:56.542Z,12.90
2018-10-07T19:10:24.733Z,13.10
2018-10-07T19:12:52.937Z,13.97
2018-10-07T19:15:21.126Z,12.97
2018-10-07T19:17:49.310Z,12.80
2018-10-07T19:20:18.092Z,13.93
2018-10-07T19:22:46.329Z,14.50
2018-10-07T19:25:14.510Z,14.87
2018-10-07T19:27:42.737Z,15.07
2018-10-07T19:30:10.918Z,15.50
2018-10-07T19:32:39.118Z,15.87
2018-10-07T19:35:07.319Z,14.67
2018-10-07T19:37:35.498Z,15.80
2018-10-07T19:40:03.690Z,15.30
2018-10-07T19:42:31.935Z,15.53
2018-10-07T19:45:00.125Z,14.10
2018-10-07T19:47:28.313Z,15.20
2018-10-07T19:49:56.537Z,15.17
2018-10-07T19:52:24.854Z,15.90
2018-10-07T19:54:52.933Z,15.50
2018-10-07T19:57:21.144Z,14.43
2018-10-07T19:59:49.341Z,15.73
2018-10-07T20:02:19.231Z,14.17
2018-10-07T20:04:47.777Z,14.80
2018-10-07T20:07:16.224Z,14.47
2018-10-07T20:09:44.402Z,14.10
2018-10-07T20:12:12.595Z,15.13
2018-10-07T20:14:40.813Z,16.73
2018-10-07T20:17:09.038Z,14.53
2018-10-07T20:19:37.205Z,15.00
2018-10-07T20:22:11.242Z,15.50
2018-10-07T20:24:41.406Z,14.77
2018-10-07T20:27:10.700Z,15.47
2018-10-07T20:29:39.374Z,16.67
2018-10-07T20:32:08.174Z,15.07
2018-10-07T20:34:36.617Z,15.90
2018-10-07T20:37:05.280Z,15.20
2018-10-07T20:39:33.741Z,15.57
2018-10-07T20:42:01.900Z,15.33
2018-10-07T20:44:30.138Z,14.23
2018-10-07T20:46:59.222Z,13.50
2018-10-07T20:49:27.490Z,13.87
2018-10-07T20:51:55.863Z,14.60
2018-10-07T20:54:24.119Z,12.37
2018-10-07T20:56:52.310Z,11.67
2018-10-07T20:59:20.837Z,12.73
2018-10-07T21:01:49.034Z,11.80
2018-10-07T21:04:17.210Z,12.17
2018-10-07T21:06:45.478Z,13.10
2018-10-07T21:09:13.679Z,12.00
2018-10-07T21:11:41.865Z,12.40
2018-10-07T21:14:09.999Z,13.07
2018-10-07T21:16:38.210Z,12.73
2018-10-07T21:19:06.378Z,12.13
2018-10-07T21:21:34.544Z,11.10
2018-10-07T21:24:03.178Z,12.43
2018-10-07T21:26:31.322Z,11.97
2018-10-07T21:28:59.488Z,11.70
2018-10-07T21:31:27.636Z,12.00
2018-10-07T21:33:55.842Z,12.73
2018-10-07T21:36:23.971Z,12.57
2018-10-07T21:38:52.135Z,12.53
2018-10-07T21:41:20.298Z,12.33
2018-10-07T21:43:48.490Z,13.03
2018-10-07T21:46:16.673Z,12.93
2018-10-07T21:48:44.859Z,12.63
2018-10-07T21:51:13.037Z,13.83
2018-10-07T21:53:41.217Z,12.67
2018-10-07T21:56:09.434Z,12.70
2018-10-07T21:58:37.544Z,12.50
2018-10-07T22:01:05.723Z,13.80
2018-10-07T22:03:33.904Z,12.47
2018-10-07T22:06:02.072Z,13.90
2018-10-07T22:08:30.272Z,13.53
2018-10-07T22:10:58.427Z,13.27
2018-10-07T22:13:26.602Z,11.90
2018-10-07T22:15:54.777Z,12.73
2018-10-07T22:18:22.961Z,14.47
2018-10-07T22:20:51.121Z,13.80
2018-10-07T22:23:19.297Z,12.17
2018-10-07T22:25:47.464Z,11.83
2018-10-07T22:28:15.641Z,11.83
2018-10-07T22:30:43.820Z,12.40
2018-10-07T22:33:11.982Z,11.70
2018-10-07T22:35:40.145Z,12.17
2018-10-07T22:38:08.345Z,11.70
2018-10-07T22:40:36.509Z,12.77
2018-10-07T22:43:04.684Z,11.83
2018-10-07T22:45:32.851Z,14.03
2018-10-07T22:48:01.029Z,13.47
2018-10-07T22:50:29.201Z,12.23
2018-10-07T22:52:57.369Z,12.73
2018-10-07T22:55:25.561Z,13.30
2018-10-07T22:57:53.750Z,12.90
2018-10-07T23:00:21.950Z,12.20
2018-10-07T23:02:50.089Z,13.60
2018-10-07T23:05:18.310Z,12.83
2018-10-07T23:07:46.493Z,13.33
2018-10-07T23:10:14.699Z,12.90
2018-10-07T23:12:42.856Z,13.30
2018-10-07T23:15:11.029Z,14.13
2018-10-07T23:17:39.417Z,12.67
2018-10-07T23:20:07.585Z,13.40
2018-10-07T23:22:35.772Z,14.00
2018-10-07T23:25:03.933Z,14.10
2018-10-07T23:27:32.162Z,15.13
2018-10-07T23:30:00.326Z,14.30
2018-10-07T23:32:28.513Z,13.77
2018-10-07T23:34:56.677Z,14.13
2018-10-07T23:37:24.957Z,13.53
2018-10-07T23:39:53.068Z,15.00
2018-10-07T23:42:21.229Z,15.03
2018-10-07T23:44:49.425Z,15.30
2018-10-07T23:47:17.635Z,14.13
2018-10-07T23:49:45.787Z,13.60
2018-10-07T23:52:14.029Z,14.23
2018-10-07T23:54:42.126Z,13.93
2018-10-07T23:57:10.281Z,14.17
2018-10-07T23:59:38.475Z,14.00
